sensor_id;sensor_type;location;lat;lon;timestamp;pressure;altitude;pressure_sealevel;temperature
7830;BMP180;3960;51.86894000;5.39848000;2023-04-06T00:00:45;101862.44;;;5.28
7830;BMP180;3960;51.86894000;5.39848000;2023-04-06T00:03:10;101855.94;;;5.29
7830;BMP180;3960;51.86894000;5.39848000;2023-04-06T00:05:35;101858.09;;;5.24
7830;BMP180;3960;51.86894000;5.39848000;2023-04-06T00:08:01;101848.50;;;5.23
7830;BMP180;3960;51.86894000;5.39848000;2023-04-06T00:10:26;101850.06;;;5.24
7830;BMP180;3960;51.86894000;5.39848000;2023-04-06T00:12:52;101848.38;;;5.19
7830;BMP180;3960;51.86894000;5.39848000;2023-04-06T00:15:17;101851.16;;;5.23
7830;BMP180;3960;51.86894000;5.39848000;2023-04-06T00:17:43;101849.50;;;5.18
7830;BMP180;3960;51.86894000;5.39848000;2023-04-06T00:20:08;101842.84;;;5.12
7830;BMP180;3960;51.86894000;5.39848000;2023-04-06T00:22:34;101844.41;;;5.13
7830;BMP180;3960;51.86894000;5.39848000;2023-04-06T00:24:59;101844.31;;;5.10
7830;BMP180;3960;51.86894000;5.39848000;2023-04-06T00:27:25;101844.22;;;5.06
7830;BMP180;3960;51.86894000;5.39848000;2023-04-06T00:29:50;101839.19;;;5.05
7830;BMP180;3960;51.86894000;5.39848000;2023-04-06T00:32:15;101838.28;;;5.01
7830;BMP180;3960;51.86894000;5.39848000;2023-04-06T00:34:41;101827.81;;;4.96
7830;BMP180;3960;51.86894000;5.39848000;2023-04-06T00:37:06;101836.22;;;4.95
7830;BMP180;3960;51.86894000;5.39848000;2023-04-06T00:39:31;101821.56;;;4.92
7830;BMP180;3960;51.86894000;5.39848000;2023-04-06T00:41:56;101828.06;;;4.91
7830;BMP180;3960;51.86894000;5.39848000;2023-04-06T00:44:22;101815.75;;;4.90
7830;BMP180;3960;51.86894000;5.39848000;2023-04-06T00:46:47;101823.09;;;4.93
7830;BMP180;3960;51.86894000;5.39848000;2023-04-06T00:49:13;101814.28;;;4.93
7830;BMP180;3960;51.86894000;5.39848000;2023-04-06T00:51:38;101817.31;;;4.91
7830;BMP180;3960;51.86894000;5.39848000;2023-04-06T00:54:04;101795.66;;;4.84
7830;BMP180;3960;51.86894000;5.39848000;2023-04-06T00:56:29;101807.69;;;4.90
7830;BMP180;3960;51.86894000;5.39848000;2023-04-06T00:58:55;101808.72;;;4.86
7830;BMP180;3960;51.86894000;5.39848000;2023-04-06T01:01:20;101810.97;;;4.84
7830;BMP180;3960;51.86894000;5.39848000;2023-04-06T01:03:46;101800.13;;;4.80
7830;BMP180;3960;51.86894000;5.39848000;2023-04-06T01:06:14;101804.47;;;4.85
7830;BMP180;3960;51.86894000;5.39848000;2023-04-06T01:08:39;101798.66;;;4.83
7830;BMP180;3960;51.86894000;5.39848000;2023-04-06T01:11:04;101795.97;;;4.83
7830;BMP180;3960;51.86894000;5.39848000;2023-04-06T01:13:30;101784.47;;;4.82
7830;BMP180;3960;51.86894000;5.39848000;2023-04-06T01:15:55;101775.47;;;4.75
7830;BMP180;3960;51.86894000;5.39848000;2023-04-06T01:18:27;101790.28;;;4.84
7830;BMP180;3960;51.86894000;5.39848000;2023-04-06T01:20:53;101778.09;;;4.87
7830;BMP180;3960;51.86894000;5.39848000;2023-04-06T01:23:18;101787.34;;;4.89
7830;BMP180;3960;51.86894000;5.39848000;2023-04-06T01:25:44;101790.47;;;4.91
7830;BMP180;3960;51.86894000;5.39848000;2023-04-06T01:28:09;101792.47;;;4.94
7830;BMP180;3960;51.86894000;5.39848000;2023-04-06T01:30:34;101787.44;;;4.93
7830;BMP180;3960;51.86894000;5.39848000;2023-04-06T01:33:00;101784.41;;;4.94
7830;BMP180;3960;51.86894000;5.39848000;2023-04-06T01:35:26;101787.19;;;4.98
7830;BMP180;3960;51.86894000;5.39848000;2023-04-06T01:37:51;101775.31;;;4.99
7830;BMP180;3960;51.86894000;5.39848000;2023-04-06T01:40:20;101763.03;;;4.98
7830;BMP180;3960;51.86894000;5.39848000;2023-04-06T01:42:45;101764.94;;;4.97
7830;BMP180;3960;51.86894000;5.39848000;2023-04-06T01:45:11;101763.03;;;4.98
7830;BMP180;3960;51.86894000;5.39848000;2023-04-06T01:47:36;101760.34;;;4.98
7830;BMP180;3960;51.86894000;5.39848000;2023-04-06T01:50:01;101760.69;;;4.96
7830;BMP180;3960;51.86894000;5.39848000;2023-04-06T01:52:30;101758.78;;;4.97
7830;BMP180;3960;51.86894000;5.39848000;2023-04-06T01:54:55;101747.53;;;4.91
7830;BMP180;3960;51.86894000;5.39848000;2023-04-06T01:57:20;101749.16;;;4.96
7830;BMP180;3960;51.86894000;5.39848000;2023-04-06T01:59:46;101750.31;;;4.95
7830;BMP180;3960;51.86894000;5.39848000;2023-04-06T02:02:11;101749.94;;;4.96
7830;BMP180;3960;51.86894000;5.39848000;2023-04-06T02:04:38;101736.88;;;4.95
7830;BMP180;3960;51.86894000;5.39848000;2023-04-06T02:07:03;101735.72;;;4.96
7830;BMP180;3960;51.86894000;5.39848000;2023-04-06T02:09:28;101736.19;;;4.98
7830;BMP180;3960;51.86894000;5.39848000;2023-04-06T02:11:53;101721.44;;;4.92
7830;BMP180;3960;51.86894000;5.39848000;2023-04-06T02:14:19;101725.53;;;5.01
7830;BMP180;3960;51.86894000;5.39848000;2023-04-06T02:16:44;101720.16;;;5.01
7830;BMP180;3960;51.86894000;5.39848000;2023-04-06T02:19:09;101724.75;;;5.01
7830;BMP180;3960;51.86894000;5.39848000;2023-04-06T02:21:34;101722.06;;;5.01
7830;BMP180;3960;51.86894000;5.39848000;2023-04-06T02:24:00;101724.84;;;5.04
7830;BMP180;3960;51.86894000;5.39848000;2023-04-06T02:26:25;101716.81;;;5.04
7830;BMP180;3960;51.86894000;5.39848000;2023-04-06T02:28:50;101719.50;;;5.04
7830;BMP180;3960;51.86894000;5.39848000;2023-04-06T02:31:15;101716.00;;;5.03
7830;BMP180;3960;51.86894000;5.39848000;2023-04-06T02:33:41;101715.25;;;5.03
7830;BMP180;3960;51.86894000;5.39848000;2023-04-06T02:36:06;101704.75;;;4.98
7830;BMP180;3960;51.86894000;5.39848000;2023-04-06T02:38:31;101697.56;;;5.02
7830;BMP180;3960;51.86894000;5.39848000;2023-04-06T02:40:57;101696.78;;;5.02
7830;BMP180;3960;51.86894000;5.39848000;2023-04-06T02:43:22;101701.53;;;5.08
7830;BMP180;3960;51.86894000;5.39848000;2023-04-06T02:45:47;101702.00;;;5.10
7830;BMP180;3960;51.86894000;5.39848000;2023-04-06T02:48:13;101699.38;;;5.13
7830;BMP180;3960;51.86894000;5.39848000;2023-04-06T02:50:39;101692.72;;;5.07
7830;BMP180;3960;51.86894000;5.39848000;2023-04-06T02:53:04;101689.50;;;5.17
7830;BMP180;3960;51.86894000;5.39848000;2023-04-06T02:55:29;101698.84;;;5.23
7830;BMP180;3960;51.86894000;5.39848000;2023-04-06T02:57:55;101689.69;;;5.24
7830;BMP180;3960;51.86894000;5.39848000;2023-04-06T03:00:20;101692.34;;;5.24
7830;BMP180;3960;51.86894000;5.39848000;2023-04-06T03:02:45;101684.75;;;5.26
7830;BMP180;3960;51.86894000;5.39848000;2023-04-06T03:05:11;101682.81;;;5.27
7830;BMP180;3960;51.86894000;5.39848000;2023-04-06T03:07:36;101679.38;;;5.26
7830;BMP180;3960;51.86894000;5.39848000;2023-04-06T03:10:01;101680.94;;;5.27
7830;BMP180;3960;51.86894000;5.39848000;2023-04-06T03:12:27;101662.56;;;5.14
7830;BMP180;3960;51.86894000;5.39848000;2023-04-06T03:14:52;101678.94;;;5.24
7830;BMP180;3960;51.86894000;5.39848000;2023-04-06T03:17:17;101681.53;;;5.21
7830;BMP180;3960;51.86894000;5.39848000;2023-04-06T03:19:42;101660.84;;;5.06
7830;BMP180;3960;51.86894000;5.39848000;2023-04-06T03:22:08;101665.53;;;5.09
7830;BMP180;3960;51.86894000;5.39848000;2023-04-06T03:24:33;101678.31;;;5.15
7830;BMP180;3960;51.86894000;5.39848000;2023-04-06T03:26:58;101653.50;;;5.03
7830;BMP180;3960;51.86894000;5.39848000;2023-04-06T03:29:24;101667.00;;;5.06
7830;BMP180;3960;51.86894000;5.39848000;2023-04-06T03:31:49;101669.31;;;5.08
7830;BMP180;3960;51.86894000;5.39848000;2023-04-06T03:34:14;101672.00;;;5.08
7830;BMP180;3960;51.86894000;5.39848000;2023-04-06T03:36:40;101663.44;;;5.03
7830;BMP180;3960;51.86894000;5.39848000;2023-04-06T03:39:05;101664.31;;;5.06
7830;BMP180;3960;51.86894000;5.39848000;2023-04-06T03:41:30;101663.78;;;5.01
7830;BMP180;3960;51.86894000;5.39848000;2023-04-06T03:43:56;101649.78;;;4.92
7830;BMP180;3960;51.86894000;5.39848000;2023-04-06T03:46:21;101652.50;;;4.96
7830;BMP180;3960;51.86894000;5.39848000;2023-04-06T03:48:48;101659.44;;;4.97
7830;BMP180;3960;51.86894000;5.39848000;2023-04-06T03:51:13;101654.78;;;4.94
7830;BMP180;3960;51.86894000;5.39848000;2023-04-06T03:53:39;101650.53;;;4.93
7830;BMP180;3960;51.86894000;5.39848000;2023-04-06T03:56:04;101634.94;;;4.83
7830;BMP180;3960;51.86894000;5.39848000;2023-04-06T03:58:30;101647.41;;;4.91
7830;BMP180;3960;51.86894000;5.39848000;2023-04-06T04:00:55;101641.78;;;4.80
7830;BMP180;3960;51.86894000;5.39848000;2023-04-06T04:03:21;101648.88;;;4.88
7830;BMP180;3960;51.86894000;5.39848000;2023-04-06T04:05:48;101650.09;;;4.91
7830;BMP180;3960;51.86894000;5.39848000;2023-04-06T04:08:13;101651.66;;;4.92
7830;BMP180;3960;51.86894000;5.39848000;2023-04-06T04:10:38;101652.00;;;4.90
7830;BMP180;3960;51.86894000;5.39848000;2023-04-06T04:13:04;101652.47;;;4.92
7830;BMP180;3960;51.86894000;5.39848000;2023-04-06T04:15:29;101645.44;;;4.88
7830;BMP180;3960;51.86894000;5.39848000;2023-04-06T04:17:54;101648.53;;;4.90
7830;BMP180;3960;51.86894000;5.39848000;2023-04-06T04:20:20;101648.53;;;4.90
7830;BMP180;3960;51.86894000;5.39848000;2023-04-06T04:22:45;101659.28;;;4.90
7830;BMP180;3960;51.86894000;5.39848000;2023-04-06T04:25:10;101661.97;;;4.90
7830;BMP180;3960;51.86894000;5.39848000;2023-04-06T04:27:35;101654.69;;;4.90
7830;BMP180;3960;51.86894000;5.39848000;2023-04-06T04:30:01;101654.34;;;4.92
7830;BMP180;3960;51.86894000;5.39848000;2023-04-06T04:32:26;101628.38;;;4.80
7830;BMP180;3960;51.86894000;5.39848000;2023-04-06T04:34:53;101648.22;;;4.91
7830;BMP180;3960;51.86894000;5.39848000;2023-04-06T04:37:18;101652.78;;;4.91
7830;BMP180;3960;51.86894000;5.39848000;2023-04-06T04:39:44;101635.81;;;4.87
7830;BMP180;3960;51.86894000;5.39848000;2023-04-06T04:42:10;101653.22;;;4.93
7830;BMP180;3960;51.86894000;5.39848000;2023-04-06T04:44:35;101640.06;;;4.88
7830;BMP180;3960;51.86894000;5.39848000;2023-04-06T04:47:00;101650.53;;;4.93
7830;BMP180;3960;51.86894000;5.39848000;2023-04-06T04:49:26;101645.19;;;4.93
7830;BMP180;3960;51.86894000;5.39848000;2023-04-06T04:51:51;101642.84;;;4.91
7830;BMP180;3960;51.86894000;5.39848000;2023-04-06T04:54:17;101648.63;;;4.93
7830;BMP180;3960;51.86894000;5.39848000;2023-04-06T04:56:43;101644.41;;;4.92
7830;BMP180;3960;51.86894000;5.39848000;2023-04-06T04:59:08;101645.19;;;4.93
7830;BMP180;3960;51.86894000;5.39848000;2023-04-06T05:01:33;101641.78;;;4.96
7830;BMP180;3960;51.86894000;5.39848000;2023-04-06T05:03:58;101643.00;;;4.98
7830;BMP180;3960;51.86894000;5.39848000;2023-04-06T05:06:24;101639.53;;;4.98
7830;BMP180;3960;51.86894000;5.39848000;2023-04-06T05:08:50;101632.28;;;4.98
7830;BMP180;3960;51.86894000;5.39848000;2023-04-06T05:11:15;101641.19;;;5.02
7830;BMP180;3960;51.86894000;5.39848000;2023-04-06T05:13:41;101636.16;;;5.01
7830;BMP180;3960;51.86894000;5.39848000;2023-04-06T05:16:06;101636.75;;;5.09
7830;BMP180;3960;51.86894000;5.39848000;2023-04-06T05:18:31;101628.28;;;5.07
7830;BMP180;3960;51.86894000;5.39848000;2023-04-06T05:20:57;101613.97;;;5.03
7830;BMP180;3960;51.86894000;5.39848000;2023-04-06T05:23:22;101634.31;;;5.20
7830;BMP180;3960;51.86894000;5.39848000;2023-04-06T05:25:47;101635.97;;;5.24
7830;BMP180;3960;51.86894000;5.39848000;2023-04-06T05:28:13;101632.59;;;5.27
7830;BMP180;3960;51.86894000;5.39848000;2023-04-06T05:30:42;101618.00;;;5.28
7830;BMP180;3960;51.86894000;5.39848000;2023-04-06T05:33:08;101634.66;;;5.34
7830;BMP180;3960;51.86894000;5.39848000;2023-04-06T05:35:34;101620.84;;;5.35
7830;BMP180;3960;51.86894000;5.39848000;2023-04-06T05:37:59;101622.00;;;5.34
7830;BMP180;3960;51.86894000;5.39848000;2023-04-06T05:40:25;101627.50;;;5.41
7830;BMP180;3960;51.86894000;5.39848000;2023-04-06T05:42:51;101627.94;;;5.43
7830;BMP180;3960;51.86894000;5.39848000;2023-04-06T05:45:16;101620.31;;;5.45
7830;BMP180;3960;51.86894000;5.39848000;2023-04-06T05:47:44;101633.47;;;5.50
7830;BMP180;3960;51.86894000;5.39848000;2023-04-06T05:50:12;101625.50;;;5.54
7830;BMP180;3960;51.86894000;5.39848000;2023-04-06T05:52:37;101627.97;;;5.62
7830;BMP180;3960;51.86894000;5.39848000;2023-04-06T05:55:03;101622.72;;;5.84
7830;BMP180;3960;51.86894000;5.39848000;2023-04-06T05:57:29;101628.47;;;6.02
7830;BMP180;3960;51.86894000;5.39848000;2023-04-06T05:59:54;101628.47;;;6.02
7830;BMP180;3960;51.86894000;5.39848000;2023-04-06T06:02:20;101636.09;;;6.00
7830;BMP180;3960;51.86894000;5.39848000;2023-04-06T06:04:46;101639.06;;;5.95
7830;BMP180;3960;51.86894000;5.39848000;2023-04-06T06:07:11;101630.88;;;5.88
7830;BMP180;3960;51.86894000;5.39848000;2023-04-06T06:09:36;101634.75;;;5.90
7830;BMP180;3960;51.86894000;5.39848000;2023-04-06T06:12:02;101619.63;;;5.82
7830;BMP180;3960;51.86894000;5.39848000;2023-04-06T06:14:27;101635.91;;;5.89
7830;BMP180;3960;51.86894000;5.39848000;2023-04-06T06:16:53;101628.47;;;5.83
7830;BMP180;3960;51.86894000;5.39848000;2023-04-06T06:19:19;101642.50;;;5.92
7830;BMP180;3960;51.86894000;5.39848000;2023-04-06T06:21:44;101641.75;;;5.95
7830;BMP180;3960;51.86894000;5.39848000;2023-04-06T06:24:09;101639.94;;;5.99
7830;BMP180;3960;51.86894000;5.39848000;2023-04-06T06:26:35;101633.41;;;6.00
7830;BMP180;3960;51.86894000;5.39848000;2023-04-06T06:29:02;101617.25;;;5.96
7830;BMP180;3960;51.86894000;5.39848000;2023-04-06T06:31:27;101637.56;;;6.16
7830;BMP180;3960;51.86894000;5.39848000;2023-04-06T06:33:52;101632.41;;;6.27
7830;BMP180;3960;51.86894000;5.39848000;2023-04-06T06:36:18;101630.97;;;6.33
7830;BMP180;3960;51.86894000;5.39848000;2023-04-06T06:38:43;101628.78;;;6.38
7830;BMP180;3960;51.86894000;5.39848000;2023-04-06T06:41:09;101633.88;;;6.43
7830;BMP180;3960;51.86894000;5.39848000;2023-04-06T06:43:35;101635.88;;;6.46
7830;BMP180;3960;51.86894000;5.39848000;2023-04-06T06:46:00;101635.94;;;6.50
7830;BMP180;3960;51.86894000;5.39848000;2023-04-06T06:48:25;101628.69;;;6.53
7830;BMP180;3960;51.86894000;5.39848000;2023-04-06T06:50:51;101617.53;;;6.52
7830;BMP180;3960;51.86894000;5.39848000;2023-04-06T06:53:16;101640.44;;;6.64
7830;BMP180;3960;51.86894000;5.39848000;2023-04-06T06:55:41;101639.69;;;6.67
7830;BMP180;3960;51.86894000;5.39848000;2023-04-06T06:58:09;101632.75;;;6.66
7830;BMP180;3960;51.86894000;5.39848000;2023-04-06T07:00:34;101632.88;;;6.73
7830;BMP180;3960;51.86894000;5.39848000;2023-04-06T07:02:59;101621.75;;;6.75
7830;BMP180;3960;51.86894000;5.39848000;2023-04-06T07:05:25;101617.09;;;6.72
7830;BMP180;3960;51.86894000;5.39848000;2023-04-06T07:07:51;101622.06;;;6.70
7830;BMP180;3960;51.86894000;5.39848000;2023-04-06T07:10:16;101617.03;;;6.68
7830;BMP180;3960;51.86894000;5.39848000;2023-04-06T07:12:41;101622.84;;;6.70
7830;BMP180;3960;51.86894000;5.39848000;2023-04-06T07:15:07;101622.09;;;6.73
7830;BMP180;3960;51.86894000;5.39848000;2023-04-06T07:17:32;101623.66;;;6.74
7830;BMP180;3960;51.86894000;5.39848000;2023-04-06T07:19:58;101601.59;;;6.65
7830;BMP180;3960;51.86894000;5.39848000;2023-04-06T07:22:23;101629.88;;;6.78
7830;BMP180;3960;51.86894000;5.39848000;2023-04-06T07:24:48;101619.59;;;6.84
7830;BMP180;3960;51.86894000;5.39848000;2023-04-06T07:27:13;101611.94;;;6.86
7830;BMP180;3960;51.86894000;5.39848000;2023-04-06T07:29:39;101600.31;;;6.82
7830;BMP180;3960;51.86894000;5.39848000;2023-04-06T07:32:04;101614.81;;;6.96
7830;BMP180;3960;51.86894000;5.39848000;2023-04-06T07:34:30;101619.47;;;6.99
7830;BMP180;3960;51.86894000;5.39848000;2023-04-06T07:36:56;101619.56;;;7.06
7830;BMP180;3960;51.86894000;5.39848000;2023-04-06T07:39:21;101617.38;;;7.12
7830;BMP180;3960;51.86894000;5.39848000;2023-04-06T07:41:47;101611.66;;;7.17
7830;BMP180;3960;51.86894000;5.39848000;2023-04-06T07:44:12;101604.06;;;7.22
7830;BMP180;3960;51.86894000;5.39848000;2023-04-06T07:46:37;101612.59;;;7.27
7830;BMP180;3960;51.86894000;5.39848000;2023-04-06T07:49:02;101610.00;;;7.34
7830;BMP180;3960;51.86894000;5.39848000;2023-04-06T07:51:28;101601.66;;;7.43
7830;BMP180;3960;51.86894000;5.39848000;2023-04-06T07:53:53;101604.09;;;7.51
7830;BMP180;3960;51.86894000;5.39848000;2023-04-06T07:56:18;101606.88;;;7.58
7830;BMP180;3960;51.86894000;5.39848000;2023-04-06T07:58:44;101605.41;;;7.64
7830;BMP180;3960;51.86894000;5.39848000;2023-04-06T08:01:10;101614.72;;;7.70
7830;BMP180;3960;51.86894000;5.39848000;2023-04-06T08:03:35;101612.88;;;7.78
7830;BMP180;3960;51.86894000;5.39848000;2023-04-06T08:06:01;101614.06;;;7.80
7830;BMP180;3960;51.86894000;5.39848000;2023-04-06T08:08:27;101618.41;;;7.88
7830;BMP180;3960;51.86894000;5.39848000;2023-04-06T08:10:52;101612.75;;;7.96
7830;BMP180;3960;51.86894000;5.39848000;2023-04-06T08:13:17;101612.81;;;8.03
7830;BMP180;3960;51.86894000;5.39848000;2023-04-06T08:15:43;101614.09;;;8.13
7830;BMP180;3960;51.86894000;5.39848000;2023-04-06T08:18:09;101612.25;;;8.17
7830;BMP180;3960;51.86894000;5.39848000;2023-04-06T08:20:35;101620.84;;;8.29
7830;BMP180;3960;51.86894000;5.39848000;2023-04-06T08:23:01;101609.34;;;8.32
7830;BMP180;3960;51.86894000;5.39848000;2023-04-06T08:25:26;101612.06;;;8.36
7830;BMP180;3960;51.86894000;5.39848000;2023-04-06T08:27:52;101610.94;;;8.37
7830;BMP180;3960;51.86894000;5.39848000;2023-04-06T08:30:17;101611.00;;;8.44
7830;BMP180;3960;51.86894000;5.39848000;2023-04-06T08:32:47;101617.19;;;8.48
7830;BMP180;3960;51.86894000;5.39848000;2023-04-06T08:35:12;101614.13;;;8.49
7830;BMP180;3960;51.86894000;5.39848000;2023-04-06T08:37:37;101614.94;;;8.53
7830;BMP180;3960;51.86894000;5.39848000;2023-04-06T08:40:03;101620.38;;;8.57
7830;BMP180;3960;51.86894000;5.39848000;2023-04-06T08:42:32;101627.06;;;8.70
7830;BMP180;3960;51.86894000;5.39848000;2023-04-06T08:44:57;101603.09;;;8.68
7830;BMP180;3960;51.86894000;5.39848000;2023-04-06T08:47:23;101620.56;;;8.81
7830;BMP180;3960;51.86894000;5.39848000;2023-04-06T08:49:48;101606.28;;;8.77
7830;BMP180;3960;51.86894000;5.39848000;2023-04-06T08:52:15;101617.63;;;8.93
7830;BMP180;3960;51.86894000;5.39848000;2023-04-06T08:54:42;101626.53;;;9.00
7830;BMP180;3960;51.86894000;5.39848000;2023-04-06T08:57:08;101620.06;;;9.08
7830;BMP180;3960;51.86894000;5.39848000;2023-04-06T08:59:34;101586.78;;;9.01
7830;BMP180;3960;51.86894000;5.39848000;2023-04-06T09:02:03;101617.03;;;9.20
7830;BMP180;3960;51.86894000;5.39848000;2023-04-06T09:04:29;101618.25;;;9.26
7830;BMP180;3960;51.86894000;5.39848000;2023-04-06T09:06:54;101619.84;;;9.34
7830;BMP180;3960;51.86894000;5.39848000;2023-04-06T09:09:20;101626.41;;;9.37
7830;BMP180;3960;51.86894000;5.39848000;2023-04-06T09:11:47;101608.63;;;9.32
7830;BMP180;3960;51.86894000;5.39848000;2023-04-06T09:14:13;101631.13;;;9.50
7830;BMP180;3960;51.86894000;5.39848000;2023-04-06T09:16:39;101623.81;;;9.54
7830;BMP180;3960;51.86894000;5.39848000;2023-04-06T09:19:06;101616.84;;;9.49
7830;BMP180;3960;51.86894000;5.39848000;2023-04-06T09:21:31;101609.50;;;9.50
7830;BMP180;3960;51.86894000;5.39848000;2023-04-06T09:24:00;101620.38;;;9.60
7830;BMP180;3960;51.86894000;5.39848000;2023-04-06T09:26:26;101616.91;;;9.60
7830;BMP180;3960;51.86894000;5.39848000;2023-04-06T09:28:58;101623.06;;;9.60
7830;BMP180;3960;51.86894000;5.39848000;2023-04-06T09:31:28;101624.66;;;9.68
7830;BMP180;3960;51.86894000;5.39848000;2023-04-06T09:33:54;101613.50;;;9.77
7830;BMP180;3960;51.86894000;5.39848000;2023-04-06T09:36:29;101615.84;;;9.82
7830;BMP180;3960;51.86894000;5.39848000;2023-04-06T09:38:58;101615.88;;;9.92
7830;BMP180;3960;51.86894000;5.39848000;2023-04-06T09:41:28;101608.25;;;10.05
7830;BMP180;3960;51.86894000;5.39848000;2023-04-06T09:44:09;101614.47;;;10.19
7830;BMP180;3960;51.86894000;5.39848000;2023-04-06T09:46:42;101614.09;;;10.34
7830;BMP180;3960;51.86894000;5.39848000;2023-04-06T09:49:09;101614.13;;;10.45
7830;BMP180;3960;51.86894000;5.39848000;2023-04-06T09:51:36;101610.69;;;10.62
7830;BMP180;3960;51.86894000;5.39848000;2023-04-06T09:54:01;101620.75;;;10.75
7830;BMP180;3960;51.86894000;5.39848000;2023-04-06T09:56:33;101614.19;;;10.83
7830;BMP180;3960;51.86894000;5.39848000;2023-04-06T09:59:04;101613.41;;;10.89
7830;BMP180;3960;51.86894000;5.39848000;2023-04-06T10:01:32;101599.09;;;10.92
7830;BMP180;3960;51.86894000;5.39848000;2023-04-06T10:04:09;101614.19;;;11.04
7830;BMP180;3960;51.86894000;5.39848000;2023-04-06T10:06:37;101616.09;;;11.03
7830;BMP180;3960;51.86894000;5.39848000;2023-04-06T10:09:04;101604.13;;;10.97
7830;BMP180;3960;51.86894000;5.39848000;2023-04-06T10:11:33;101609.53;;;10.97
7830;BMP180;3960;51.86894000;5.39848000;2023-04-06T10:13:59;101606.06;;;10.87
7830;BMP180;3960;51.86894000;5.39848000;2023-04-06T10:16:25;101617.28;;;10.78
7830;BMP180;3960;51.86894000;5.39848000;2023-04-06T10:19:06;101618.03;;;10.65
7830;BMP180;3960;51.86894000;5.39848000;2023-04-06T10:21:35;101624.25;;;10.65
7830;BMP180;3960;51.86894000;5.39848000;2023-04-06T10:24:02;101620.75;;;10.68
7830;BMP180;3960;51.86894000;5.39848000;2023-04-06T10:26:31;101631.59;;;10.68
7830;BMP180;3960;51.86894000;5.39848000;2023-04-06T10:29:02;101625.78;;;10.59
7830;BMP180;3960;51.86894000;5.39848000;2023-04-06T10:31:28;101624.97;;;10.48
7830;BMP180;3960;51.86894000;5.39848000;2023-04-06T10:33:58;101625.72;;;10.35
7830;BMP180;3960;51.86894000;5.39848000;2023-04-06T10:36:35;101622.97;;;10.21
7830;BMP180;3960;51.86894000;5.39848000;2023-04-06T10:39:03;101621.81;;;10.18
7830;BMP180;3960;51.86894000;5.39848000;2023-04-06T10:41:37;101623.72;;;10.15
7830;BMP180;3960;51.86894000;5.39848000;2023-04-06T10:44:05;101621.78;;;10.08
7830;BMP180;3960;51.86894000;5.39848000;2023-04-06T10:46:34;101622.50;;;9.98
7830;BMP180;3960;51.86894000;5.39848000;2023-04-06T10:49:11;101622.84;;;9.93
7830;BMP180;3960;51.86894000;5.39848000;2023-04-06T10:51:38;101614.31;;;9.84
7830;BMP180;3960;51.86894000;5.39848000;2023-04-06T10:54:05;101626.25;;;9.76
7830;BMP180;3960;51.86894000;5.39848000;2023-04-06T10:56:32;101618.13;;;9.69
7830;BMP180;3960;51.86894000;5.39848000;2023-04-06T10:58:59;101616.53;;;9.61
7830;BMP180;3960;51.86894000;5.39848000;2023-04-06T11:01:25;101622.66;;;9.58
7830;BMP180;3960;51.86894000;5.39848000;2023-04-06T11:03:54;101616.88;;;9.56
7830;BMP180;3960;51.86894000;5.39848000;2023-04-06T11:06:22;101617.28;;;9.55
7830;BMP180;3960;51.86894000;5.39848000;2023-04-06T11:08:48;101609.50;;;9.53
7830;BMP180;3960;51.86894000;5.39848000;2023-04-06T11:11:15;101610.63;;;9.49
7830;BMP180;3960;51.86894000;5.39848000;2023-04-06T11:13:45;101612.53;;;9.42
7830;BMP180;3960;51.86894000;5.39848000;2023-04-06T11:16:21;101592.34;;;9.25
7830;BMP180;3960;51.86894000;5.39848000;2023-04-06T11:18:50;101604.75;;;9.30
7830;BMP180;3960;51.86894000;5.39848000;2023-04-06T11:21:17;101597.78;;;9.29
7830;BMP180;3960;51.86894000;5.39848000;2023-04-06T11:23:42;101600.50;;;9.29
7830;BMP180;3960;51.86894000;5.39848000;2023-04-06T11:26:11;101599.34;;;9.30
7830;BMP180;3960;51.86894000;5.39848000;2023-04-06T11:28:38;101583.53;;;9.32
7830;BMP180;3960;51.86894000;5.39848000;2023-04-06T11:31:03;101585.84;;;9.33
7830;BMP180;3960;51.86894000;5.39848000;2023-04-06T11:33:28;101579.66;;;9.36
7830;BMP180;3960;51.86894000;5.39848000;2023-04-06T11:35:58;101580.06;;;9.38
7830;BMP180;3960;51.86894000;5.39848000;2023-04-06T11:38:23;101579.72;;;9.43
7830;BMP180;3960;51.86894000;5.39848000;2023-04-06T11:40:53;101577.34;;;9.35
7830;BMP180;3960;51.86894000;5.39848000;2023-04-06T11:43:26;101575.06;;;9.37
7830;BMP180;3960;51.86894000;5.39848000;2023-04-06T11:45:59;101573.13;;;9.41
7830;BMP180;3960;51.86894000;5.39848000;2023-04-06T11:48:25;101565.44;;;9.46
7830;BMP180;3960;51.86894000;5.39848000;2023-04-06T11:50:55;101563.91;;;9.45
7830;BMP180;3960;51.86894000;5.39848000;2023-04-06T11:53:21;101572.00;;;9.45
7830;BMP180;3960;51.86894000;5.39848000;2023-04-06T11:55:46;101563.50;;;9.43
7830;BMP180;3960;51.86894000;5.39848000;2023-04-06T11:58:12;101539.09;;;9.29
7830;BMP180;3960;51.86894000;5.39848000;2023-04-06T12:00:37;101558.50;;;9.45
7830;BMP180;3960;51.86894000;5.39848000;2023-04-06T12:03:03;101546.94;;;9.51
7830;BMP180;3960;51.86894000;5.39848000;2023-04-06T12:05:28;101549.66;;;9.51
7830;BMP180;3960;51.86894000;5.39848000;2023-04-06T12:07:53;101544.63;;;9.57
7830;BMP180;3960;51.86894000;5.39848000;2023-04-06T12:10:19;101553.94;;;9.63
7830;BMP180;3960;51.86894000;5.39848000;2023-04-06T12:12:44;101548.91;;;9.65
7830;BMP180;3960;51.86894000;5.39848000;2023-04-06T12:15:10;101549.69;;;9.69
7830;BMP180;3960;51.86894000;5.39848000;2023-04-06T12:17:35;101547.81;;;9.76
7830;BMP180;3960;51.86894000;5.39848000;2023-04-06T12:20:01;101550.16;;;9.81
7830;BMP180;3960;51.86894000;5.39848000;2023-04-06T12:22:27;101542.44;;;9.87
7830;BMP180;3960;51.86894000;5.39848000;2023-04-06T12:24:53;101546.31;;;9.86
7830;BMP180;3960;51.86894000;5.39848000;2023-04-06T12:27:18;101547.44;;;9.85
7830;BMP180;3960;51.86894000;5.39848000;2023-04-06T12:29:43;101541.28;;;9.81
7830;BMP180;3960;51.86894000;5.39848000;2023-04-06T12:32:08;101540.88;;;9.79
7830;BMP180;3960;51.86894000;5.39848000;2023-04-06T12:34:34;101540.06;;;9.68